Eastover, SC (29044)

8:38 AM EST on February 06, 2016 (GMT -0500)
Horrell Hill SC | | Change Station
CLOSE
Current Station
Personal Weather Station
Location: Hopkins, SC
Elevation: 240 ft
Nearby Weather Stations

Elev 240 ft 33.94 °N, 80.83 °W | Updated 40 seconds ago

Mostly Cloudy
Mostly Cloudy
33.0 °F
Feels Like 33 °F
N
1.0
Wind Variable Wind from North
Gusts 2.0 mph

Today
High -- | Low -- °F
--% Chance of Precip.
Yesterday
High -- | Low -- °F
Precip. -- in
Pressure 30.43 in
Visibility 10.0 miles
Clouds Mostly Cloudy 25000 ft
Windchill 33 °F
Dew Point 26 °F
Humidity 76%
Rainfall 0.00 in
Snow Depth Not available.
7:16 AM 5:58 PM
Waning Crescent, 5% visible
METAR KMMT 061258Z 03006KT 10SM BKN250 01/M05 A3041 RMK AO2A SLP303 T00061052 $
Pressure 30.43 in
Visibility 10.0 miles
Clouds Mostly Cloudy 25000 ft
Windchill 33 °F
Dew Point 26 °F
Humidity 76%
Rainfall 0.00 in
Snow Depth Not available.
7:16 AM 5:58 PM
Waning Crescent, 5% visible
METAR KMMT 061258Z 03006KT 10SM BKN250 01/M05 A3041 RMK AO2A SLP303 T00061052 $

10-Day Weather Forecast

Almanac

Astronomy

Feb. 06, 2016 Rise Set
Actual Time
Civil Twilight
Nautical Twilight
Astronomical Twilight
Moon
Length of Visible Light
Length of Day
Tomorrow will be .
, % of the Moon is Illuminated

Today's Extremes

State Highs State Lows

Community

WunderPhotos

Upload Photos

1,890,971 photos uploaded!

WunderBlog® & News

Nearby

Air Quality

  Air Quality AQ Index Pollutant
Not available.

Snow Depth

Station Depth Elevation

Earthquake Activity

City Distance Mag. Time & Date
Minimum magnitude displayed is 2.5.

Coastal Water Temperatures

Place Temperature

Stations

Nearby Weather Stations

Station Location Temp. Windchill Dew Point Humidity Wind Precip. Elev Updated Type
                   

Watches & Warnings

Flood Warning
Issued: 5:42 AM EST Feb. 6, 2016 – National Weather Service

The Flood Warning extended for
the Congaree River at Carolina Eastman.
* Until Sunday evening... or until the warning is cancelled.
* At 5 am Saturday the stage was 115.9 feet.
* Flood stage is 115.0 feet.
* Minor flooding is occurring and minor flooding is forecast.
* Forecast... the river will continue to fall... going below flood
stage by this evening.
* At 115.0 feet... flooding occurs in low lying areas of the Carolina
Eastman facility and at the Congaree National Park.


Lat... Lon 3396 8100 3387 8092 3379 8097 3394 8106




Hydrologic Statement
Issued: 9:31 PM EST Feb. 5, 2016 – National Weather Service

Forecast information for
Congaree River at Columbia.
* At 9 PM Friday the stage was 9.7 feet.
* Advisory stage is 10 feet.
* Flood stage is 19 feet.
* Forecast... the river at Columbia will fluctuate between 8
and 10.5 feet through Saturday.


Lat... Lon 3404 8106 3396 8100 3394 8106 3401 8111